createdAt,value
2016-09-01T00:00:08.884Z,1010.16
2016-09-01T00:01:08.863Z,1010.17
2016-09-01T00:02:08.859Z,1010.19
2016-09-01T00:03:08.822Z,1010.18
2016-09-01T00:04:08.802Z,1010.16
2016-09-01T00:05:08.781Z,1010.19
2016-09-01T00:06:08.760Z,1010.16
2016-09-01T00:07:08.741Z,1010.15
2016-09-01T00:08:08.720Z,1010.18
2016-09-01T00:09:08.699Z,1010.15
2016-09-01T00:10:08.678Z,1010.17
2016-09-01T00:11:08.658Z,1010.14
2016-09-01T00:12:08.637Z,1010.19
2016-09-01T00:13:08.623Z,1010.17
2016-09-01T00:14:08.596Z,1010.18
2016-09-01T00:15:08.575Z,1010.14
2016-09-01T00:16:08.554Z,1010.12
2016-09-01T00:17:08.534Z,1010.13
2016-09-01T00:18:08.514Z,1010.12
2016-09-01T00:19:08.493Z,1010.14
2016-09-01T00:20:08.486Z,1010.17
2016-09-01T00:21:08.452Z,1010.18
2016-09-01T00:22:08.432Z,1010.16
2016-09-01T00:23:08.411Z,1010.18
2016-09-01T00:24:08.392Z,1010.21
2016-09-01T00:25:08.370Z,1010.19
2016-09-01T00:26:08.350Z,1010.22
2016-09-01T00:27:08.329Z,1010.26
2016-09-01T00:28:08.309Z,1010.25
2016-09-01T00:29:08.290Z,1010.23
2016-09-01T00:30:08.267Z,1010.22
2016-09-01T00:31:08.247Z,1010.24
2016-09-01T00:32:08.227Z,1010.21
2016-09-01T00:33:08.205Z,1010.26
2016-09-01T00:34:08.184Z,1010.29
2016-09-01T00:35:08.165Z,1010.25
2016-09-01T00:36:08.145Z,1010.3
2016-09-01T00:37:08.123Z,1010.31
2016-09-01T00:38:08.103Z,1010.3
2016-09-01T00:39:08.082Z,1010.29
2016-09-01T00:40:08.061Z,1010.32
2016-09-01T00:41:08.041Z,1010.29
2016-09-01T00:42:08.021Z,1010.29
2016-09-01T00:43:08.000Z,1010.3
2016-09-01T00:44:07.979Z,1010.31
2016-09-01T00:45:07.958Z,1010.3
2016-09-01T00:46:07.937Z,1010.34
2016-09-01T00:47:07.918Z,1010.36
2016-09-01T00:48:07.897Z,1010.35
2016-09-01T00:49:07.876Z,1010.36
2016-09-01T00:50:07.856Z,1010.38
2016-09-01T00:51:07.834Z,1010.37
2016-09-01T00:52:07.813Z,1010.39
2016-09-01T00:53:07.793Z,1010.33
2016-09-01T00:54:07.772Z,1010.33
2016-09-01T00:55:07.751Z,1010.35
2016-09-01T00:56:07.731Z,1010.33
2016-09-01T00:57:07.710Z,1010.31
2016-09-01T00:58:07.690Z,1010.29
2016-09-01T00:59:07.668Z,1010.34
2016-09-01T01:00:07.699Z,1010.32
2016-09-01T01:01:07.628Z,1010.34
2016-09-01T01:02:07.607Z,1010.36
2016-09-01T01:03:07.584Z,1010.36
2016-09-01T01:04:07.565Z,1010.4
2016-09-01T01:05:07.545Z,1010.43
2016-09-01T01:06:07.522Z,1010.41
2016-09-01T01:07:07.503Z,1010.43
2016-09-01T01:08:07.483Z,1010.39
2016-09-01T01:09:07.461Z,1010.39
2016-09-01T01:10:07.440Z,1010.44
2016-09-01T01:11:07.420Z,1010.46
2016-09-01T01:12:07.399Z,1010.48
2016-09-01T01:13:07.379Z,1010.48
2016-09-01T01:14:07.358Z,1010.47
2016-09-01T01:15:07.338Z,1010.47
2016-09-01T01:16:07.316Z,1010.52
2016-09-01T01:17:07.294Z,1010.58
2016-09-01T01:18:07.275Z,1010.55
2016-09-01T01:19:07.254Z,1010.55
2016-09-01T01:20:07.234Z,1010.56
2016-09-01T01:21:07.212Z,1010.59
2016-09-01T01:22:07.192Z,1010.63
2016-09-01T01:23:07.171Z,1010.66
2016-09-01T01:24:07.150Z,1010.62
2016-09-01T01:25:07.134Z,1010.57
2016-09-01T01:26:07.109Z,1010.64
2016-09-01T01:27:07.088Z,1010.65
2016-09-01T01:28:07.066Z,1010.65
2016-09-01T01:29:07.048Z,1010.64
2016-09-01T01:30:07.026Z,1010.61
2016-09-01T01:31:07.004Z,1010.64
2016-09-01T01:32:06.983Z,1010.6
2016-09-01T01:33:06.961Z,1010.59
2016-09-01T01:34:06.941Z,1010.6
2016-09-01T01:35:06.922Z,1010.59
2016-09-01T01:36:06.900Z,1010.55
2016-09-01T01:37:06.879Z,1010.59
2016-09-01T01:38:06.859Z,1010.56
2016-09-01T01:39:06.837Z,1010.56
2016-09-01T01:40:06.816Z,1010.53
2016-09-01T01:41:06.796Z,1010.53
2016-09-01T01:42:06.774Z,1010.56
2016-09-01T01:43:06.753Z,1010.58
2016-09-01T01:44:06.733Z,1010.6
2016-09-01T01:45:06.714Z,1010.58
2016-09-01T01:46:06.691Z,1010.61
2016-09-01T01:47:06.674Z,1010.61
2016-09-01T01:48:06.649Z,1010.63
2016-09-01T01:49:06.629Z,1010.57
2016-09-01T01:50:06.606Z,1010.58
2016-09-01T01:51:06.587Z,1010.57
2016-09-01T01:52:06.566Z,1010.56
2016-09-01T01:53:06.545Z,1010.56
2016-09-01T01:54:06.523Z,1010.56
2016-09-01T01:55:06.503Z,1010.57
2016-09-01T01:56:06.482Z,1010.55
2016-09-01T01:57:06.462Z,1010.54
2016-09-01T01:58:06.440Z,1010.51
2016-09-01T01:59:06.421Z,1010.47
2016-09-01T02:00:06.400Z,1010.51
2016-09-01T02:01:06.378Z,1010.48
2016-09-01T02:02:06.357Z,1010.52
2016-09-01T02:03:06.336Z,1010.48
2016-09-01T02:04:06.315Z,1010.51
2016-09-01T02:05:06.294Z,1010.48
2016-09-01T02:06:06.273Z,1010.5
2016-09-01T02:07:06.252Z,1010.49
2016-09-01T02:08:06.231Z,1010.48
2016-09-01T02:09:06.211Z,1010.49
2016-09-01T02:10:06.190Z,1010.51
2016-09-01T02:11:06.169Z,1010.52
2016-09-01T02:12:06.147Z,1010.49
2016-09-01T02:13:06.127Z,1010.52
2016-09-01T02:14:06.106Z,1010.52
2016-09-01T02:15:06.085Z,1010.54
2016-09-01T02:16:06.064Z,1010.53
2016-09-01T02:17:06.043Z,1010.53
2016-09-01T02:18:06.023Z,1010.56
2016-09-01T02:19:06.001Z,1010.54
2016-09-01T02:20:05.979Z,1010.56
2016-09-01T02:21:05.959Z,1010.58
2016-09-01T02:22:05.938Z,1010.61
2016-09-01T02:23:05.917Z,1010.59
2016-09-01T02:24:05.896Z,1010.61
2016-09-01T02:25:05.875Z,1010.59
2016-09-01T02:26:05.855Z,1010.6
2016-09-01T02:27:05.833Z,1010.58
2016-09-01T02:28:05.816Z,1010.59
2016-09-01T02:29:05.792Z,1010.58
2016-09-01T02:30:05.770Z,1010.63
2016-09-01T02:31:05.749Z,1010.58
2016-09-01T02:32:05.729Z,1010.62
2016-09-01T02:33:05.707Z,1010.67
2016-09-01T02:34:05.686Z,1010.61
2016-09-01T02:35:05.666Z,1010.66
2016-09-01T02:36:05.644Z,1010.68
2016-09-01T02:37:05.624Z,1010.7
2016-09-01T02:38:05.607Z,1010.72
2016-09-01T02:39:05.581Z,1010.71
2016-09-01T02:40:05.561Z,1010.72
2016-09-01T02:41:05.539Z,1010.73
2016-09-01T02:42:05.517Z,1010.69
2016-09-01T02:43:05.502Z,1010.69
2016-09-01T02:44:05.477Z,1010.69
2016-09-01T02:45:05.455Z,1010.63
2016-09-01T02:46:05.435Z,1010.66
2016-09-01T02:47:05.414Z,1010.62
2016-09-01T02:48:05.393Z,1010.63
2016-09-01T02:49:05.372Z,1010.59
2016-09-01T02:50:05.350Z,1010.55
2016-09-01T02:51:05.330Z,1010.58
2016-09-01T02:52:05.308Z,1010.59
2016-09-01T02:53:05.287Z,1010.58
2016-09-01T02:54:05.267Z,1010.58
2016-09-01T02:55:05.246Z,1010.57
2016-09-01T02:56:05.224Z,1010.52
2016-09-01T02:57:05.208Z,1010.61
2016-09-01T02:58:05.183Z,1010.58
2016-09-01T02:59:05.161Z,1010.62
2016-09-01T03:00:05.141Z,1010.59
2016-09-01T03:01:05.119Z,1010.56
2016-09-01T03:02:05.098Z,1010.59
2016-09-01T03:03:05.077Z,1010.52
2016-09-01T03:04:05.055Z,1010.6
2016-09-01T03:05:05.035Z,1010.57
2016-09-01T03:06:05.013Z,1010.59
2016-09-01T03:07:04.992Z,1010.56
2016-09-01T03:08:04.971Z,1010.59
2016-09-01T03:09:04.951Z,1010.59
2016-09-01T03:10:04.930Z,1010.54
2016-09-01T03:11:04.909Z,1010.54
2016-09-01T03:12:04.888Z,1010.58
2016-09-01T03:13:04.866Z,1010.56
2016-09-01T03:14:04.846Z,1010.55
2016-09-01T03:15:04.824Z,1010.54
2016-09-01T03:16:04.804Z,1010.55
2016-09-01T03:17:04.782Z,1010.56
2016-09-01T03:18:04.760Z,1010.57
2016-09-01T03:19:04.740Z,1010.61
2016-09-01T03:20:04.719Z,1010.66
2016-09-01T03:21:04.699Z,1010.6
2016-09-01T03:22:04.676Z,1010.55
2016-09-01T03:23:04.656Z,1010.62
2016-09-01T03:24:04.634Z,1010.57
2016-09-01T03:25:04.614Z,1010.61
2016-09-01T03:26:04.593Z,1010.62
2016-09-01T03:27:04.571Z,1010.58
2016-09-01T03:28:04.551Z,1010.6
2016-09-01T03:29:04.529Z,1010.63
2016-09-01T03:30:04.508Z,1010.64
2016-09-01T03:31:04.488Z,1010.64
2016-09-01T03:32:04.467Z,1010.62
2016-09-01T03:33:04.445Z,1010.64
2016-09-01T03:34:04.426Z,1010.59
2016-09-01T03:35:04.404Z,1010.56
2016-09-01T03:36:04.387Z,1010.58
2016-09-01T03:37:04.361Z,1010.61
2016-09-01T03:38:04.340Z,1010.61
2016-09-01T03:39:04.319Z,1010.63
2016-09-01T03:40:04.298Z,1010.62
2016-09-01T03:41:04.277Z,1010.55
2016-09-01T03:42:04.255Z,1010.58
2016-09-01T03:43:04.234Z,1010.61
2016-09-01T03:44:04.213Z,1010.64
2016-09-01T03:45:04.193Z,1010.65
2016-09-01T03:46:04.172Z,1010.62
2016-09-01T03:47:04.150Z,1010.67
2016-09-01T03:48:04.129Z,1010.64
2016-09-01T03:49:04.109Z,1010.67
2016-09-01T03:50:04.088Z,1010.65
2016-09-01T03:51:04.065Z,1010.65
2016-09-01T03:52:04.045Z,1010.63
2016-09-01T03:53:04.024Z,1010.62
2016-09-01T03:54:04.003Z,1010.63
2016-09-01T03:55:03.982Z,1010.65
2016-09-01T03:56:03.965Z,1010.65
2016-09-01T03:57:03.939Z,1010.7
2016-09-01T03:58:03.917Z,1010.7
2016-09-01T03:59:03.897Z,1010.68
2016-09-01T04:00:03.875Z,1010.73
2016-09-01T04:01:03.855Z,1010.77
2016-09-01T04:02:03.833Z,1010.76
2016-09-01T04:03:03.811Z,1010.8
2016-09-01T04:04:03.791Z,1010.77
2016-09-01T04:05:03.769Z,1010.83
2016-09-01T04:06:03.753Z,1010.79
2016-09-01T04:07:03.731Z,1010.83
2016-09-01T04:08:03.707Z,1010.83
2016-09-01T04:09:03.684Z,1010.87
2016-09-01T04:10:03.665Z,1010.85
2016-09-01T04:11:03.643Z,1010.84
2016-09-01T04:12:03.622Z,1010.82
2016-09-01T04:13:03.600Z,1010.87
2016-09-01T04:14:03.581Z,1010.85
2016-09-01T04:15:03.559Z,1010.8
2016-09-01T04:16:03.538Z,1010.84
2016-09-01T04:17:03.517Z,1010.83
2016-09-01T04:18:03.496Z,1010.83
2016-09-01T04:19:03.476Z,1010.84
2016-09-01T04:20:03.454Z,1010.86
2016-09-01T04:21:03.433Z,1010.84
2016-09-01T04:22:03.413Z,1010.83
2016-09-01T04:23:03.393Z,1010.81
2016-09-01T04:24:03.376Z,1010.79
2016-09-01T04:25:03.351Z,1010.82
2016-09-01T04:26:03.330Z,1010.8
2016-09-01T04:27:03.308Z,1010.82
2016-09-01T04:28:03.288Z,1010.83
2016-09-01T04:29:03.271Z,1010.83
2016-09-01T04:30:03.246Z,1010.9
2016-09-01T04:31:03.225Z,1010.93
2016-09-01T04:32:03.204Z,1010.92
2016-09-01T04:33:03.183Z,1010.91
2016-09-01T04:34:03.163Z,1010.91
2016-09-01T04:35:03.187Z,1010.92
2016-09-01T04:36:03.121Z,1010.94
2016-09-01T04:37:03.100Z,1010.95
2016-09-01T04:38:03.078Z,1010.93
2016-09-01T04:39:03.058Z,1010.97
2016-09-01T04:40:03.036Z,1011.01
2016-09-01T04:41:03.016Z,1011.04
2016-09-01T04:42:02.994Z,1011.04
2016-09-01T04:43:02.974Z,1011.11
2016-09-01T04:44:02.953Z,1011.09
2016-09-01T04:45:02.933Z,1011.12
2016-09-01T04:46:02.911Z,1011.17
2016-09-01T04:47:02.890Z,1011.17
2016-09-01T04:48:02.870Z,1011.17
2016-09-01T04:49:02.848Z,1011.2
2016-09-01T04:50:02.827Z,1011.22
2016-09-01T04:51:02.806Z,1011.19
2016-09-01T04:52:02.785Z,1011.21
2016-09-01T04:53:02.764Z,1011.2
2016-09-01T04:54:02.747Z,1011.23
2016-09-01T04:55:02.722Z,1011.21
2016-09-01T04:56:02.700Z,1011.17
2016-09-01T04:57:02.678Z,1011.16
2016-09-01T04:58:02.659Z,1011.16
2016-09-01T04:59:02.637Z,1011.18
2016-09-01T05:00:02.618Z,1011.16
2016-09-01T05:01:02.595Z,1011.12
2016-09-01T05:02:02.574Z,1011.09
2016-09-01T05:03:02.554Z,1011.07
2016-09-01T05:04:02.532Z,1011.1
2016-09-01T05:05:02.606Z,1011.1
2016-09-01T05:06:02.490Z,1011.13
2016-09-01T05:07:02.469Z,1011.15
2016-09-01T05:08:02.448Z,1011.15
2016-09-01T05:09:02.427Z,1011.18
2016-09-01T05:10:02.408Z,1011.18
2016-09-01T05:11:02.385Z,1011.17
2016-09-01T05:12:02.364Z,1011.16
2016-09-01T05:13:02.344Z,1011.16
2016-09-01T05:14:02.323Z,1011.18
2016-09-01T05:15:02.302Z,1011.21
2016-09-01T05:16:02.281Z,1011.23
2016-09-01T05:17:02.261Z,1011.23
2016-09-01T05:18:02.239Z,1011.27
2016-09-01T05:19:02.219Z,1011.26
2016-09-01T05:20:02.198Z,1011.26
2016-09-01T05:21:02.177Z,1011.25
2016-09-01T05:22:02.155Z,1011.23
2016-09-01T05:23:02.134Z,1011.25
2016-09-01T05:24:02.113Z,1011.3
2016-09-01T05:25:02.094Z,1011.31
2016-09-01T05:26:02.071Z,1011.31
2016-09-01T05:27:02.090Z,1011.32
2016-09-01T05:28:02.036Z,1011.31
2016-09-01T05:29:02.030Z,1011.33
2016-09-01T05:30:01.988Z,1011.38
2016-09-01T05:31:01.985Z,1011.34
2016-09-01T05:32:01.958Z,1011.37
2016-09-01T05:33:01.925Z,1011.35
2016-09-01T05:34:01.905Z,1011.39
2016-09-01T05:35:01.885Z,1011.37
2016-09-01T05:36:01.877Z,1011.32
2016-09-01T05:37:01.855Z,1011.28
2016-09-01T05:38:01.823Z,1011.34
2016-09-01T05:39:01.803Z,1011.31
2016-09-01T05:40:01.793Z,1011.36
2016-09-01T05:41:01.791Z,1011.35
2016-09-01T05:42:01.746Z,1011.38
2016-09-01T05:43:01.781Z,1011.34
2016-09-01T05:44:01.705Z,1011.34
2016-09-01T05:45:01.680Z,1011.33
2016-09-01T05:46:01.659Z,1011.37
2016-09-01T05:47:01.638Z,1011.36
2016-09-01T05:48:01.619Z,1011.38
2016-09-01T05:49:01.603Z,1011.38
2016-09-01T05:50:01.580Z,1011.4
2016-09-01T05:51:01.556Z,1011.42
2016-09-01T05:52:01.536Z,1011.41
2016-09-01T05:53:01.516Z,1011.4
2016-09-01T05:54:01.497Z,1011.45
2016-09-01T05:55:01.475Z,1011.44
2016-09-01T05:56:01.456Z,1011.39
2016-09-01T05:57:01.436Z,1011.39
2016-09-01T05:58:01.416Z,1011.41
2016-09-01T05:59:01.395Z,1011.41
2016-09-01T06:00:01.381Z,1011.4
2016-09-01T06:01:01.356Z,1011.42
2016-09-01T06:02:01.335Z,1011.43
2016-09-01T06:03:01.316Z,1011.46
2016-09-01T06:04:01.297Z,1011.43
2016-09-01T06:05:01.277Z,1011.45
2016-09-01T06:06:01.256Z,1011.45
2016-09-01T06:07:01.237Z,1011.46
2016-09-01T06:08:01.217Z,1011.45
2016-09-01T06:09:01.199Z,1011.49
2016-09-01T06:10:01.192Z,1011.49
2016-09-01T06:11:01.158Z,1011.53
2016-09-01T06:12:01.140Z,1011.55
2016-09-01T06:13:01.120Z,1011.52
2016-09-01T06:14:01.100Z,1011.49
2016-09-01T06:15:01.081Z,1011.56
2016-09-01T06:16:01.062Z,1011.58
2016-09-01T06:17:01.041Z,1011.61
2016-09-01T06:18:01.024Z,1011.6
2016-09-01T06:19:01.004Z,1011.61
2016-09-01T06:20:00.985Z,1011.68
2016-09-01T06:21:00.967Z,1011.65
2016-09-01T06:22:00.947Z,1011.66
2016-09-01T06:23:00.928Z,1011.67
2016-09-01T06:24:00.909Z,1011.64
2016-09-01T06:25:00.889Z,1011.66
2016-09-01T06:26:00.870Z,1011.72
2016-09-01T06:27:00.852Z,1011.66
2016-09-01T06:28:00.832Z,1011.66
2016-09-01T06:29:00.813Z,1011.7
2016-09-01T06:30:00.796Z,1011.66
2016-09-01T06:31:00.778Z,1011.68
2016-09-01T06:32:00.758Z,1011.66
2016-09-01T06:33:00.740Z,1011.66
2016-09-01T06:34:00.722Z,1011.65
2016-09-01T06:35:00.702Z,1011.65
2016-09-01T06:36:00.688Z,1011.65
2016-09-01T06:37:00.666Z,1011.65
2016-09-01T06:38:00.647Z,1011.62
2016-09-01T06:39:00.628Z,1011.65
2016-09-01T06:40:00.609Z,1011.67
2016-09-01T06:41:00.592Z,1011.75
2016-09-01T06:42:00.574Z,1011.76
2016-09-01T06:43:00.555Z,1011.78
2016-09-01T06:44:00.538Z,1011.73
2016-09-01T06:45:00.520Z,1011.75
2016-09-01T06:46:00.500Z,1011.83
2016-09-01T06:47:00.483Z,1011.77
2016-09-01T06:48:00.465Z,1011.8
2016-09-01T06:49:00.447Z,1011.82
2016-09-01T06:50:00.583Z,1011.82
2016-09-01T06:51:00.410Z,1011.79
2016-09-01T06:52:00.392Z,1011.79
2016-09-01T06:53:00.375Z,1011.84
2016-09-01T06:54:00.357Z,1011.87
2016-09-01T06:55:00.343Z,1011.86
2016-09-01T06:56:00.321Z,1011.85
2016-09-01T06:57:00.304Z,1011.87
2016-09-01T06:58:00.285Z,1011.86
2016-09-01T06:59:00.269Z,1011.87
2016-09-01T07:00:00.252Z,1011.9
2016-09-01T07:01:00.234Z,1011.95
2016-09-01T07:02:00.217Z,1011.97
2016-09-01T07:03:00.200Z,1011.93
2016-09-01T07:04:00.431Z,1011.94
2016-09-01T07:05:00.165Z,1012
2016-09-01T07:06:00.149Z,1011.98
2016-09-01T07:07:00.132Z,1012.05
2016-09-01T07:08:00.114Z,1011.99
2016-09-01T07:09:00.097Z,1011.99
2016-09-01T07:10:00.080Z,1012.02
2016-09-01T07:11:00.063Z,1012.03
2016-09-01T07:12:00.045Z,1011.99
2016-09-01T07:13:00.066Z,1012.03
2016-09-01T07:14:00.012Z,1012.04
2016-09-01T07:14:59.993Z,1012.08
2016-09-01T07:15:59.978Z,1012.05
2016-09-01T07:16:59.961Z,1012.03
2016-09-01T07:17:59.943Z,1012.07
2016-09-01T07:18:59.925Z,1012.15
2016-09-01T07:19:59.910Z,1012.12
2016-09-01T07:20:59.948Z,1012.17
2016-09-01T07:21:59.876Z,1012.16
2016-09-01T07:22:59.859Z,1012.16
2016-09-01T07:23:59.958Z,1012.11
2016-09-01T07:24:59.826Z,1012.16
2016-09-01T07:25:59.809Z,1012.07
2016-09-01T07:26:59.795Z,1012.09
2016-09-01T07:27:59.776Z,1012.13
2016-09-01T07:28:59.759Z,1012.14
2016-09-01T07:29:59.742Z,1012.12
2016-09-01T07:30:59.726Z,1012.1
2016-09-01T07:31:59.716Z,1012.13
2016-09-01T07:32:59.695Z,1012.13
2016-09-01T07:33:59.676Z,1012.13
2016-09-01T07:34:59.660Z,1012.17
2016-09-01T07:35:59.643Z,1012.19
2016-09-01T07:36:59.627Z,1012.18
2016-09-01T07:37:59.610Z,1012.22
2016-09-01T07:38:59.594Z,1012.21
2016-09-01T07:39:59.578Z,1012.16
2016-09-01T07:40:59.561Z,1012.25
2016-09-01T07:41:59.544Z,1012.2
2016-09-01T07:42:59.528Z,1012.21
2016-09-01T07:43:59.511Z,1012.19
2016-09-01T07:44:59.494Z,1012.17
2016-09-01T07:45:59.478Z,1012.2
2016-09-01T07:46:59.461Z,1012.17
2016-09-01T07:47:59.442Z,1012.2
2016-09-01T07:48:59.426Z,1012.18
2016-09-01T07:49:59.410Z,1012.12
2016-09-01T07:50:59.393Z,1012.13
2016-09-01T07:51:59.375Z,1012.14
2016-09-01T07:52:59.359Z,1012.16
2016-09-01T07:53:59.341Z,1012.18
2016-09-01T07:54:59.324Z,1012.15
2016-09-01T07:55:59.306Z,1012.12
2016-09-01T07:56:59.289Z,1012.16
2016-09-01T07:57:59.272Z,1012.18
2016-09-01T07:58:59.327Z,1012.23
2016-09-01T07:59:59.238Z,1012.21
2016-09-01T08:00:59.245Z,1012.27
2016-09-01T08:01:59.203Z,1012.22
2016-09-01T08:02:59.186Z,1012.19
2016-09-01T08:03:59.168Z,1012.16
2016-09-01T08:04:59.151Z,1012.19
2016-09-01T08:05:59.137Z,1012.26
2016-09-01T08:06:59.116Z,1012.2
2016-09-01T08:07:59.099Z,1012.17
2016-09-01T08:08:59.082Z,1012.17
2016-09-01T08:09:59.064Z,1012.22
2016-09-01T08:10:59.133Z,1012.23
2016-09-01T08:11:59.030Z,1012.25
2016-09-01T08:12:59.012Z,1012.25
2016-09-01T08:13:59.132Z,1012.19
2016-09-01T08:14:58.977Z,1012.19
2016-09-01T08:15:58.959Z,1012.22
2016-09-01T08:16:58.942Z,1012.2
2016-09-01T08:17:58.925Z,1012.13
2016-09-01T08:18:58.908Z,1012.18
2016-09-01T08:19:58.891Z,1012.17
2016-09-01T08:20:58.873Z,1012.2
2016-09-01T08:21:58.855Z,1012.24
2016-09-01T08:22:58.839Z,1012.21
2016-09-01T08:23:58.821Z,1012.2
2016-09-01T08:24:58.803Z,1012.23
2016-09-01T08:25:58.787Z,1012.23
2016-09-01T08:26:58.770Z,1012.2
2016-09-01T08:27:58.752Z,1012.2
2016-09-01T08:28:58.740Z,1012.21
2016-09-01T08:29:58.718Z,1012.26
2016-09-01T08:30:58.701Z,1012.25
2016-09-01T08:31:58.682Z,1012.25
2016-09-01T08:32:58.666Z,1012.32
2016-09-01T08:33:58.650Z,1012.28
2016-09-01T08:34:58.633Z,1012.32
2016-09-01T08:35:58.615Z,1012.34
2016-09-01T08:36:58.598Z,1012.34
2016-09-01T08:37:58.581Z,1012.39
2016-09-01T08:38:58.564Z,1012.37
2016-09-01T08:39:58.547Z,1012.44
2016-09-01T08:40:58.530Z,1012.38
2016-09-01T08:41:58.513Z,1012.41
2016-09-01T08:42:58.496Z,1012.38
2016-09-01T08:43:58.479Z,1012.41
2016-09-01T08:44:58.462Z,1012.4
2016-09-01T08:45:58.452Z,1012.43
2016-09-01T08:46:58.429Z,1012.43
2016-09-01T08:47:58.412Z,1012.45
2016-09-01T08:48:58.395Z,1012.4
2016-09-01T08:49:58.378Z,1012.37
2016-09-01T08:50:58.361Z,1012.35
2016-09-01T08:51:58.345Z,1012.36
2016-09-01T08:52:58.329Z,1012.36
2016-09-01T08:53:58.311Z,1012.33
2016-09-01T08:54:58.295Z,1012.34
2016-09-01T08:55:58.278Z,1012.34
2016-09-01T08:56:58.263Z,1012.33
2016-09-01T08:57:58.245Z,1012.34
2016-09-01T08:58:58.229Z,1012.32
2016-09-01T08:59:58.212Z,1012.28
2016-09-01T09:00:58.295Z,1012.28
2016-09-01T09:01:58.185Z,1012.33
2016-09-01T09:02:58.164Z,1012.31
2016-09-01T09:03:58.147Z,1012.32
2016-09-01T09:04:58.130Z,1012.33
2016-09-01T09:05:58.114Z,1012.32
2016-09-01T09:06:58.097Z,1012.28
2016-09-01T09:07:58.081Z,1012.25
2016-09-01T09:08:58.064Z,1012.33
2016-09-01T09:09:58.048Z,1012.27
2016-09-01T09:10:58.031Z,1012.26
2016-09-01T09:11:58.015Z,1012.32
2016-09-01T09:12:57.999Z,1012.33
2016-09-01T09:13:57.983Z,1012.3
2016-09-01T09:14:57.967Z,1012.3
2016-09-01T09:15:57.950Z,1012.29
2016-09-01T09:16:57.948Z,1012.29
2016-09-01T09:17:57.919Z,1012.23
2016-09-01T09:18:57.902Z,1012.27
2016-09-01T09:19:57.885Z,1012.27
2016-09-01T09:20:57.870Z,1012.26
2016-09-01T09:21:57.854Z,1012.27
2016-09-01T09:22:57.836Z,1012.28
2016-09-01T09:23:57.820Z,1012.25
2016-09-01T09:24:57.805Z,1012.23
2016-09-01T09:25:57.790Z,1012.2
2016-09-01T09:26:57.772Z,1012.16
2016-09-01T09:27:57.756Z,1012.08
2016-09-01T09:28:57.740Z,1012.15
2016-09-01T09:29:57.724Z,1012.12
2016-09-01T09:30:57.708Z,1012.14
2016-09-01T09:31:57.791Z,1012.11
2016-09-01T09:32:57.680Z,1012.05
2016-09-01T09:33:57.659Z,1012.06
2016-09-01T09:34:57.643Z,1012.05
2016-09-01T09:35:57.628Z,1011.98
2016-09-01T09:36:57.613Z,1012.03
2016-09-01T09:37:57.595Z,1012.01
2016-09-01T09:38:57.579Z,1012.02
2016-09-01T09:39:57.564Z,1012.03
2016-09-01T09:40:57.548Z,1012.02
2016-09-01T09:41:57.532Z,1011.99
2016-09-01T09:42:57.517Z,1011.94
2016-09-01T09:43:57.501Z,1011.98
2016-09-01T09:44:57.484Z,1012.01
2016-09-01T09:45:57.468Z,1011.99
2016-09-01T09:46:57.471Z,1011.96
2016-09-01T09:47:57.709Z,1011.97
2016-09-01T09:48:57.432Z,1011.95
2016-09-01T09:49:57.406Z,1011.96
2016-09-01T09:50:57.392Z,1011.96
2016-09-01T09:51:57.375Z,1011.9
2016-09-01T09:52:57.360Z,1011.97
2016-09-01T09:53:57.344Z,1011.94
2016-09-01T09:54:57.329Z,1012
2016-09-01T09:55:57.314Z,1011.97
2016-09-01T09:56:57.298Z,1011.99
2016-09-01T09:57:57.282Z,1011.97
2016-09-01T09:58:57.268Z,1011.99
2016-09-01T09:59:57.253Z,1011.98
2016-09-01T10:00:57.236Z,1011.94
2016-09-01T10:01:57.221Z,1011.94
2016-09-01T10:02:57.205Z,1011.97
2016-09-01T10:03:57.189Z,1011.95
2016-09-01T10:04:57.175Z,1012.01
2016-09-01T10:05:57.159Z,1012.02
2016-09-01T10:06:57.143Z,1011.95
2016-09-01T10:07:57.128Z,1011.96
2016-09-01T10:08:57.113Z,1012.01
2016-09-01T10:09:57.097Z,1011.99
2016-09-01T10:10:57.081Z,1011.98
2016-09-01T10:11:57.067Z,1012.04
2016-09-01T10:12:57.051Z,1012.04
2016-09-01T10:13:57.035Z,1012.06
2016-09-01T10:14:57.022Z,1011.92
2016-09-01T10:15:57.005Z,1011.92
2016-09-01T10:16:56.990Z,1011.88
2016-09-01T10:17:56.974Z,1011.93
2016-09-01T10:18:56.958Z,1011.92
2016-09-01T10:19:56.944Z,1011.77
2016-09-01T10:20:56.929Z,1011.88
2016-09-01T10:21:56.912Z,1011.82
2016-09-01T10:22:56.914Z,1011.91
2016-09-01T10:23:56.882Z,1011.86
2016-09-01T10:24:56.866Z,1011.85
2016-09-01T10:25:56.851Z,1011.84
2016-09-01T10:26:56.835Z,1011.9
2016-09-01T10:27:56.821Z,1011.87
2016-09-01T10:28:56.805Z,1011.92
2016-09-01T10:29:56.789Z,1011.89
2016-09-01T10:30:56.775Z,1011.9
2016-09-01T10:31:56.759Z,1011.88
2016-09-01T10:32:56.743Z,1011.93
2016-09-01T10:33:56.732Z,1011.93
2016-09-01T10:34:56.714Z,1011.98
2016-09-01T10:35:56.698Z,1011.94
2016-09-01T10:36:56.683Z,1011.91
2016-09-01T10:37:56.668Z,1011.96
2016-09-01T10:38:56.653Z,1011.89
2016-09-01T10:39:56.637Z,1011.97
2016-09-01T10:40:56.623Z,1011.91
2016-09-01T10:41:56.608Z,1011.88
2016-09-01T10:42:56.595Z,1011.9
2016-09-01T10:43:56.578Z,1011.82
2016-09-01T10:44:56.564Z,1011.83
2016-09-01T10:45:56.549Z,1011.87
2016-09-01T10:46:56.534Z,1011.88
2016-09-01T10:47:56.523Z,1011.85
2016-09-01T10:48:56.505Z,1011.87
2016-09-01T10:49:56.492Z,1011.84
2016-09-01T10:50:56.476Z,1011.84
2016-09-01T10:51:56.463Z,1011.88
2016-09-01T10:52:56.448Z,1011.83
2016-09-01T10:53:56.435Z,1011.79
2016-09-01T10:54:56.420Z,1011.79
2016-09-01T10:55:56.405Z,1011.77
2016-09-01T10:56:56.391Z,1011.74
2016-09-01T10:57:56.376Z,1011.78
2016-09-01T10:58:56.362Z,1011.73
2016-09-01T10:59:56.348Z,1011.77
2016-09-01T11:00:56.334Z,1011.79
2016-09-01T11:01:56.319Z,1011.77
2016-09-01T11:02:56.305Z,1011.75
2016-09-01T11:03:56.291Z,1011.78
2016-09-01T11:04:56.277Z,1011.78
2016-09-01T11:05:56.262Z,1011.81
2016-09-01T11:06:56.248Z,1011.86
2016-09-01T11:07:56.235Z,1011.85
2016-09-01T11:08:56.220Z,1011.91
2016-09-01T11:09:56.206Z,1011.85
2016-09-01T11:10:56.192Z,1011.93
2016-09-01T11:11:56.178Z,1011.9
2016-09-01T11:12:56.163Z,1011.88
2016-09-01T11:13:56.150Z,1011.91
2016-09-01T11:14:56.135Z,1011.85
2016-09-01T11:15:56.123Z,1011.87
2016-09-01T11:16:56.108Z,1011.87
2016-09-01T11:17:56.093Z,1011.84
2016-09-01T11:18:56.083Z,1011.86
2016-09-01T11:19:56.066Z,1011.77
2016-09-01T11:20:56.053Z,1011.74
2016-09-01T11:21:56.047Z,1011.77
2016-09-01T11:22:56.027Z,1011.66
2016-09-01T11:23:56.012Z,1011.69
2016-09-01T11:24:55.999Z,1011.66
2016-09-01T11:25:55.993Z,1011.7
2016-09-01T11:26:55.973Z,1011.66
2016-09-01T11:27:55.961Z,1011.6
2016-09-01T11:28:55.948Z,1011.67
2016-09-01T11:29:55.936Z,1011.61
2016-09-01T11:30:55.924Z,1011.59
2016-09-01T11:31:55.911Z,1011.64
2016-09-01T11:32:55.899Z,1011.67
2016-09-01T11:33:55.887Z,1011.63
2016-09-01T11:34:55.875Z,1011.58
2016-09-01T11:35:55.863Z,1011.63
2016-09-01T11:36:55.855Z,1011.6
2016-09-01T11:37:55.839Z,1011.62
2016-09-01T11:38:55.828Z,1011.5
2016-09-01T11:39:55.817Z,1011.49
2016-09-01T11:40:55.805Z,1011.53
2016-09-01T11:41:55.793Z,1011.54
2016-09-01T11:42:55.782Z,1011.57
2016-09-01T11:43:55.770Z,1011.55
2016-09-01T11:44:55.759Z,1011.57
2016-09-01T11:45:55.748Z,1011.53
2016-09-01T11:46:55.735Z,1011.57
2016-09-01T11:47:55.724Z,1011.56
2016-09-01T11:48:55.712Z,1011.59
2016-09-01T11:49:55.702Z,1011.56
2016-09-01T11:50:55.691Z,1011.62
2016-09-01T11:51:55.680Z,1011.6
2016-09-01T11:52:55.667Z,1011.63
2016-09-01T11:53:55.655Z,1011.62
2016-09-01T11:54:55.644Z,1011.58
2016-09-01T11:55:55.633Z,1011.58
2016-09-01T11:56:55.619Z,1011.56
2016-09-01T11:57:55.614Z,1011.62
2016-09-01T11:58:55.596Z,1011.54
2016-09-01T11:59:55.582Z,1011.52
2016-09-01T12:00:55.571Z,1011.56
2016-09-01T12:01:55.558Z,1011.52
2016-09-01T12:02:55.550Z,1011.5
2016-09-01T12:03:55.532Z,1011.46
2016-09-01T12:04:55.520Z,1011.53
2016-09-01T12:05:55.520Z,1011.47
2016-09-01T12:06:55.495Z,1011.5